createdAt,value
2019-05-11T00:00:59.043Z,71.63
2019-05-11T00:03:29.806Z,71.56
2019-05-11T00:06:00.581Z,71.78
2019-05-11T00:08:31.284Z,71.83
2019-05-11T00:11:01.932Z,71.72
2019-05-11T00:13:33.045Z,71.88
2019-05-11T00:16:04.087Z,71.84
2019-05-11T00:18:34.852Z,72.15
2019-05-11T00:21:05.839Z,72.48
2019-05-11T00:23:36.885Z,72.47
2019-05-11T00:26:08.642Z,72.24
2019-05-11T00:28:39.655Z,72.17
2019-05-11T00:31:10.347Z,72.14
2019-05-11T00:33:42.169Z,71.59
2019-05-11T00:36:13.195Z,71.51
2019-05-11T00:38:43.864Z,71.92
2019-05-11T00:41:14.967Z,72.19
2019-05-11T00:43:45.648Z,71.91
2019-05-11T00:46:16.314Z,72.26
2019-05-11T00:48:47.011Z,72.44
2019-05-11T00:51:18.019Z,72.70
2019-05-11T00:53:49.053Z,73.26
2019-05-11T00:56:20.098Z,73.46
2019-05-11T00:58:51.105Z,73.22
2019-05-11T01:01:22.100Z,72.33
2019-05-11T01:03:53.016Z,71.77
2019-05-11T01:06:23.729Z,72.10
2019-05-11T01:08:54.370Z,72.33
2019-05-11T01:11:44.407Z,72.70
2019-05-11T01:14:15.073Z,72.64
2019-05-11T01:16:45.754Z,72.40
2019-05-11T01:19:16.789Z,72.67
2019-05-11T01:21:47.483Z,72.84
2019-05-11T01:24:18.546Z,72.83
2019-05-11T01:26:50.091Z,73.09
2019-05-11T01:29:20.943Z,72.63
2019-05-11T01:31:51.976Z,72.22
2019-05-11T01:34:22.675Z,72.00
2019-05-11T01:36:53.732Z,72.23
2019-05-11T01:39:24.468Z,72.78
2019-05-11T01:41:55.135Z,72.95
2019-05-11T01:44:26.248Z,73.02
2019-05-11T01:46:56.918Z,73.67
2019-05-11T01:49:27.640Z,73.31
2019-05-11T01:51:58.305Z,73.22
2019-05-11T01:54:29.007Z,73.69
2019-05-11T01:56:59.700Z,73.83
2019-05-11T01:59:30.419Z,74.08
2019-05-11T02:02:01.391Z,74.45
2019-05-11T02:04:32.066Z,74.81
2019-05-11T02:07:02.775Z,74.84
2019-05-11T02:09:33.764Z,75.41
2019-05-11T02:12:04.494Z,75.47
2019-05-11T02:14:35.167Z,76.29
2019-05-11T02:17:05.853Z,76.04
2019-05-11T02:19:37.225Z,75.92
2019-05-11T02:22:07.909Z,75.83
2019-05-11T02:24:38.883Z,75.73
2019-05-11T02:27:09.561Z,76.00
2019-05-11T02:29:41.586Z,75.95
2019-05-11T02:32:12.932Z,75.99
2019-05-11T02:34:43.965Z,75.99
2019-05-11T02:37:14.710Z,76.25
2019-05-11T02:39:45.419Z,76.39
2019-05-11T02:42:16.501Z,76.49
2019-05-11T02:44:47.224Z,76.40
2019-05-11T02:47:18.284Z,76.68
2019-05-11T02:49:49.013Z,77.12
2019-05-11T02:52:20.517Z,77.72
2019-05-11T02:54:53.939Z,77.94
2019-05-11T02:57:24.936Z,78.42
2019-05-11T02:59:55.884Z,78.67
2019-05-11T03:02:27.938Z,78.68
2019-05-11T03:04:58.663Z,78.72
2019-05-11T03:07:29.314Z,78.56
2019-05-11T03:10:00.030Z,78.62
2019-05-11T03:12:30.671Z,78.59
2019-05-11T03:15:01.349Z,78.29
2019-05-11T03:17:33.877Z,78.13
2019-05-11T03:20:05.889Z,77.60
2019-05-11T03:22:36.899Z,78.22
2019-05-11T03:25:07.729Z,78.89
2019-05-11T03:27:38.408Z,78.78
2019-05-11T03:30:09.792Z,78.79
2019-05-11T03:32:40.795Z,78.69
2019-05-11T03:35:11.761Z,78.67
2019-05-11T03:37:42.439Z,79.41
2019-05-11T03:40:14.317Z,79.55
2019-05-11T03:42:45.071Z,79.42
2019-05-11T03:45:16.278Z,79.18
2019-05-11T03:47:46.974Z,79.14
2019-05-11T03:50:18.444Z,79.20
2019-05-11T03:52:49.435Z,78.79
2019-05-11T03:55:20.118Z,78.80
2019-05-11T03:57:51.332Z,77.88
2019-05-11T04:00:23.146Z,77.88
2019-05-11T04:02:53.787Z,78.00
2019-05-11T04:05:24.765Z,77.43
2019-05-11T04:07:55.802Z,77.42
2019-05-11T04:10:26.839Z,76.99
2019-05-11T04:12:58.801Z,75.80
2019-05-11T04:15:29.476Z,75.32
2019-05-11T04:18:00.170Z,76.00
2019-05-11T04:20:30.833Z,75.84
2019-05-11T04:23:01.515Z,75.97
2019-05-11T04:25:32.940Z,75.83
2019-05-11T04:28:03.614Z,75.22
2019-05-11T04:30:34.318Z,73.68
2019-05-11T04:33:06.000Z,70.63
2019-05-11T04:35:37.123Z,68.04
2019-05-11T04:38:07.786Z,68.12
2019-05-11T04:40:38.561Z,69.90
2019-05-11T04:43:09.627Z,71.16
2019-05-11T04:45:40.418Z,71.96
2019-05-11T04:48:11.141Z,71.92
2019-05-11T04:50:41.956Z,71.41
2019-05-11T04:53:12.623Z,70.77
2019-05-11T04:55:43.292Z,70.33
2019-05-11T04:58:14.078Z,69.44
2019-05-11T05:00:44.743Z,69.23
2019-05-11T05:03:15.443Z,67.94
2019-05-11T05:05:46.441Z,68.17
2019-05-11T05:08:21.226Z,67.18
2019-05-11T05:10:52.401Z,67.95
2019-05-11T05:13:29.569Z,67.33
2019-05-11T05:15:56.859Z,67.61
2019-05-11T05:18:27.854Z,67.96
2019-05-11T05:20:59.589Z,69.01
2019-05-11T05:23:30.325Z,68.91
2019-05-11T05:26:01.324Z,69.10
2019-05-11T05:28:32.019Z,68.24
2019-05-11T05:31:02.681Z,67.40
2019-05-11T05:33:33.695Z,67.28
2019-05-11T05:36:05.192Z,67.07
2019-05-11T05:38:36.220Z,67.29
2019-05-11T05:41:06.929Z,67.02
2019-05-11T05:43:38.058Z,66.86
2019-05-11T05:46:09.123Z,68.06
2019-05-11T05:48:40.155Z,67.48
2019-05-11T05:51:10.842Z,67.37
2019-05-11T05:53:41.910Z,66.64
2019-05-11T05:56:12.659Z,67.22
2019-05-11T05:58:43.348Z,67.90
2019-05-11T06:01:14.025Z,68.07
2019-05-11T06:03:45.014Z,67.84
2019-05-11T06:06:16.090Z,67.42
2019-05-11T06:08:46.782Z,67.59
2019-05-11T06:11:17.859Z,67.44
2019-05-11T06:13:48.893Z,67.29
2019-05-11T06:16:19.880Z,67.28
2019-05-11T06:18:50.635Z,67.46
2019-05-11T06:21:21.293Z,68.00
2019-05-11T06:23:51.996Z,66.85
2019-05-11T06:26:22.660Z,66.87
2019-05-11T06:28:53.712Z,66.15
2019-05-11T06:31:24.405Z,65.64
2019-05-11T06:33:55.151Z,64.80
2019-05-11T06:36:25.822Z,63.78
2019-05-11T06:38:56.513Z,62.42
2019-05-11T06:41:27.491Z,61.35
2019-05-11T06:44:01.806Z,61.28
2019-05-11T06:46:34.702Z,59.82
2019-05-11T06:49:03.594Z,60.02
2019-05-11T06:51:35.528Z,60.35
2019-05-11T06:54:06.204Z,61.07
2019-05-11T06:56:36.873Z,61.65
2019-05-11T06:59:07.545Z,62.14
2019-05-11T07:01:38.385Z,61.74
2019-05-11T07:04:09.395Z,61.42
2019-05-11T07:06:40.266Z,61.43
2019-05-11T07:09:10.914Z,61.46
2019-05-11T07:11:41.929Z,61.49
2019-05-11T07:14:20.503Z,61.52
2019-05-11T07:16:45.572Z,61.27
2019-05-11T07:19:16.666Z,61.53
2019-05-11T07:21:47.572Z,61.24
2019-05-11T07:24:18.580Z,61.73
2019-05-11T07:26:49.251Z,61.41
2019-05-11T07:29:19.911Z,60.33
2019-05-11T07:31:50.851Z,60.78
2019-05-11T07:34:21.511Z,59.82
2019-05-11T07:36:52.475Z,59.42
2019-05-11T07:39:23.150Z,58.79
2019-05-11T07:41:53.828Z,58.67
2019-05-11T07:44:37.629Z,58.35
2019-05-11T07:46:58.731Z,58.07
2019-05-11T07:49:29.856Z,58.39
2019-05-11T07:52:00.519Z,58.71
2019-05-11T07:54:31.208Z,58.45
2019-05-11T07:57:02.501Z,58.82
2019-05-11T07:59:33.411Z,60.03
2019-05-11T08:02:04.348Z,58.75
2019-05-11T08:04:35.010Z,59.57
2019-05-11T08:07:07.722Z,61.83
2019-05-11T08:09:38.516Z,62.03
2019-05-11T08:12:09.434Z,63.44
2019-05-11T08:14:56.578Z,64.79
2019-05-11T08:17:12.859Z,66.31
2019-05-11T08:19:43.543Z,67.19
2019-05-11T08:22:14.681Z,68.52
2019-05-11T08:24:48.005Z,69.57
2019-05-11T08:27:18.785Z,70.33
2019-05-11T08:29:49.516Z,70.55
2019-05-11T08:32:20.454Z,71.39
2019-05-11T08:34:51.211Z,71.37
2019-05-11T08:37:21.900Z,71.85
2019-05-11T08:39:52.573Z,72.42
2019-05-11T08:42:23.232Z,72.87
2019-05-11T08:44:54.624Z,73.56
2019-05-11T08:47:28.224Z,73.57
2019-05-11T08:49:59.061Z,72.17
2019-05-11T08:52:30.271Z,72.86
2019-05-11T08:55:01.198Z,73.11
2019-05-11T08:57:32.267Z,74.48
2019-05-11T09:00:03.037Z,75.73
2019-05-11T09:02:33.742Z,74.52
2019-05-11T09:05:05.088Z,74.26
2019-05-11T09:07:38.196Z,74.19
2019-05-11T09:10:09.284Z,75.45
2019-05-11T09:12:40.383Z,76.84
2019-05-11T09:15:11.293Z,77.31
2019-05-11T09:17:42.103Z,76.98
2019-05-11T09:20:14.470Z,77.70
2019-05-11T09:22:45.445Z,78.32
2019-05-11T09:25:18.331Z,79.41
2019-05-11T09:27:49.549Z,79.81
2019-05-11T09:30:20.376Z,79.89
2019-05-11T09:32:51.207Z,78.86
2019-05-11T09:35:23.285Z,80.14
2019-05-11T09:37:54.059Z,80.75
2019-05-11T09:40:24.783Z,80.64
2019-05-11T09:42:55.785Z,80.63
2019-05-11T09:45:27.823Z,81.10
2019-05-11T09:47:58.731Z,80.71
2019-05-11T09:50:29.486Z,80.03
2019-05-11T09:53:01.520Z,81.55
2019-05-11T09:55:32.465Z,81.05
2019-05-11T09:58:03.498Z,81.13
2019-05-11T10:00:34.776Z,80.42
2019-05-11T10:03:05.463Z,80.63
2019-05-11T10:05:38.317Z,80.93
2019-05-11T10:08:08.881Z,80.78
2019-05-11T10:10:39.865Z,81.46
2019-05-11T10:13:10.982Z,80.54
2019-05-11T10:15:42.007Z,81.31
2019-05-11T10:18:12.708Z,80.79
2019-05-11T10:20:43.457Z,81.33
2019-05-11T10:23:14.165Z,81.10
2019-05-11T10:25:45.155Z,81.78
2019-05-11T10:28:17.908Z,82.65
2019-05-11T10:30:51.276Z,82.47
2019-05-11T10:33:21.938Z,81.55
2019-05-11T10:35:52.639Z,81.54
2019-05-11T10:38:23.289Z,81.77
2019-05-11T10:40:54.257Z,80.29
2019-05-11T10:43:24.909Z,81.17
2019-05-11T10:45:55.844Z,81.47
2019-05-11T10:48:28.202Z,83.55
2019-05-11T10:50:59.012Z,83.40
2019-05-11T10:53:29.687Z,81.13
2019-05-11T10:56:00.801Z,80.87
2019-05-11T10:58:31.841Z,79.97
2019-05-11T11:01:02.828Z,80.36
2019-05-11T11:03:34.128Z,80.86
2019-05-11T11:06:04.817Z,80.84
2019-05-11T11:08:35.482Z,79.37
2019-05-11T11:11:08.142Z,80.35
2019-05-11T11:13:39.762Z,81.04
2019-05-11T11:16:10.436Z,79.21
2019-05-11T11:18:41.482Z,80.35
2019-05-11T11:21:12.412Z,81.08
2019-05-11T11:23:43.459Z,77.78
2019-05-11T11:26:14.394Z,78.06
2019-05-11T11:28:47.809Z,76.39
2019-05-11T11:31:18.919Z,77.70
2019-05-11T11:33:49.670Z,77.72
2019-05-11T11:36:20.335Z,78.48
2019-05-11T11:38:51.345Z,78.95
2019-05-11T11:41:22.610Z,78.42
2019-05-11T11:43:53.634Z,78.18
2019-05-11T11:46:24.697Z,78.80
2019-05-11T11:48:57.953Z,79.21
2019-05-11T11:51:28.688Z,77.97
2019-05-11T11:53:59.574Z,78.13
2019-05-11T11:56:30.573Z,79.94
2019-05-11T11:59:01.221Z,80.49
2019-05-11T12:01:31.915Z,79.30
2019-05-11T12:04:02.859Z,79.25
2019-05-11T12:06:33.525Z,79.57
2019-05-11T12:09:08.850Z,79.51
2019-05-11T12:11:39.463Z,78.33
2019-05-11T12:14:10.599Z,78.26
2019-05-11T12:16:41.271Z,78.33
2019-05-11T12:19:12.309Z,78.43
2019-05-11T12:21:43.979Z,78.79
2019-05-11T12:24:14.975Z,78.88
2019-05-11T12:26:48.080Z,78.95
2019-05-11T12:29:18.971Z,78.97
2019-05-11T12:31:49.806Z,79.35
2019-05-11T12:34:20.459Z,79.75
2019-05-11T12:36:52.759Z,80.89
2019-05-11T12:39:23.437Z,82.14
2019-05-11T12:41:54.121Z,81.83
2019-05-11T12:44:24.789Z,82.85
2019-05-11T12:46:58.160Z,82.61
2019-05-11T12:49:29.045Z,82.26
2019-05-11T12:52:00.237Z,81.72
2019-05-11T12:54:33.907Z,82.05
2019-05-11T12:57:03.651Z,82.41
2019-05-11T12:59:34.667Z,82.11
2019-05-11T13:02:08.158Z,83.06
2019-05-11T13:04:40.981Z,84.18
2019-05-11T13:07:11.623Z,84.67
2019-05-11T13:09:43.046Z,84.16
2019-05-11T13:12:13.707Z,83.59
2019-05-11T13:14:44.690Z,81.92
2019-05-11T13:17:15.756Z,83.24
2019-05-11T13:19:47.968Z,83.11
2019-05-11T13:22:19.227Z,81.35
2019-05-11T13:24:50.408Z,81.97
2019-05-11T13:27:21.505Z,82.41
2019-05-11T13:29:52.684Z,83.54
2019-05-11T13:32:24.826Z,84.59
2019-05-11T13:34:55.606Z,85.47
2019-05-11T13:37:28.276Z,85.93
2019-05-11T13:39:59.228Z,85.02
2019-05-11T13:42:30.317Z,85.04
2019-05-11T13:45:00.976Z,85.48
2019-05-11T13:47:32.033Z,85.66
2019-05-11T13:50:02.962Z,84.68
2019-05-11T13:52:34.011Z,83.96
2019-05-11T13:55:07.797Z,83.93
2019-05-11T13:57:39.899Z,84.14
2019-05-11T14:00:11.285Z,83.59
2019-05-11T14:02:42.348Z,83.63
2019-05-11T14:05:13.382Z,82.58
2019-05-11T14:07:48.267Z,81.30
2019-05-11T14:10:19.384Z,81.50
2019-05-11T14:12:50.512Z,81.81
2019-05-11T14:15:21.515Z,81.92
2019-05-11T14:20:25.255Z,81.98
2019-05-11T14:22:58.278Z,82.48
2019-05-11T14:25:29.818Z,80.79
2019-05-11T14:28:00.696Z,81.12
2019-05-11T14:30:31.690Z,81.56
2019-05-11T14:32:21.224Z,81.67
2019-05-11T14:33:02.720Z,80.97
2019-05-11T14:38:40.682Z,81.61
2019-05-11T14:41:11.909Z,81.62
2019-05-11T14:43:42.618Z,80.83
2019-05-11T14:46:13.665Z,81.13
2019-05-11T14:48:44.769Z,81.26
2019-05-11T14:51:18.040Z,81.32
2019-05-11T14:53:50.296Z,80.99
2019-05-11T14:56:21.374Z,79.71
2019-05-11T14:58:52.306Z,78.71
2019-05-11T15:01:23.479Z,78.92
2019-05-11T15:03:55.340Z,79.96
2019-05-11T15:06:27.919Z,79.79
2019-05-11T15:08:58.764Z,78.89
2019-05-11T15:11:29.838Z,79.45
2019-05-11T15:14:00.671Z,79.64
2019-05-11T15:16:31.645Z,79.41
2019-05-11T15:19:03.980Z,79.29
2019-05-11T15:21:35.647Z,78.68
2019-05-11T15:24:09.108Z,80.05
2019-05-11T15:26:40.459Z,79.75
2019-05-11T15:29:11.569Z,79.84
2019-05-11T15:31:42.516Z,79.71
2019-05-11T15:34:13.262Z,80.14
2019-05-11T15:36:44.302Z,80.92
2019-05-11T15:39:15.320Z,81.39
2019-05-11T15:41:47.927Z,81.09
2019-05-11T15:44:18.552Z,81.87
2019-05-11T15:46:49.316Z,81.37
2019-05-11T15:49:20.067Z,82.12
2019-05-11T15:51:51.215Z,82.01
2019-05-11T15:54:21.900Z,81.55
2019-05-11T15:56:52.862Z,80.57
2019-05-11T15:59:24.016Z,80.35
2019-05-11T16:01:54.816Z,80.47
2019-05-11T16:04:27.979Z,80.38
2019-05-11T16:07:00.150Z,79.77
2019-05-11T16:09:32.699Z,78.44
2019-05-11T16:12:03.419Z,78.85
2019-05-11T16:14:34.106Z,79.02
2019-05-11T16:17:04.814Z,79.32
2019-05-11T16:19:35.609Z,80.08
2019-05-11T16:22:10.064Z,80.46
2019-05-11T16:24:40.853Z,80.55
2019-05-11T16:27:12.032Z,80.97
2019-05-11T16:29:43.038Z,80.29
2019-05-11T16:32:14.071Z,81.05
2019-05-11T16:34:44.838Z,81.97
2019-05-11T16:37:18.227Z,81.58
2019-05-11T16:39:49.520Z,82.06
2019-05-11T16:42:20.693Z,82.69
2019-05-11T16:44:51.829Z,82.10
2019-05-11T16:47:22.502Z,82.89
2019-05-11T16:49:53.178Z,82.98
2019-05-11T16:52:24.286Z,82.19
2019-05-11T16:54:54.996Z,82.40
2019-05-11T16:57:26.022Z,82.87
2019-05-11T16:59:58.456Z,83.55
2019-05-11T17:02:30.456Z,82.70
2019-05-11T17:05:01.933Z,82.99
2019-05-11T17:07:32.950Z,83.51
2019-05-11T17:10:05.543Z,84.00
2019-05-11T17:12:38.555Z,83.43
2019-05-11T17:15:10.917Z,84.33
2019-05-11T17:17:41.944Z,83.32
2019-05-11T17:20:13.382Z,83.57
2019-05-11T17:22:44.720Z,84.15
2019-05-11T17:25:15.725Z,84.46
2019-05-11T17:27:48.644Z,83.65
2019-05-11T17:30:21.223Z,83.86
2019-05-11T17:32:53.404Z,83.78
2019-05-11T17:35:24.063Z,85.41
2019-05-11T17:37:55.064Z,84.91
2019-05-11T17:40:28.343Z,85.00
2019-05-11T17:43:00.027Z,84.77
2019-05-11T17:45:31.025Z,84.80
2019-05-11T17:48:01.734Z,85.40
2019-05-11T17:50:32.415Z,85.70
2019-05-11T17:53:03.561Z,85.32
2019-05-11T17:55:34.718Z,85.41
2019-05-11T17:58:08.523Z,85.15
2019-05-11T18:00:39.410Z,85.33
2019-05-11T18:03:11.500Z,85.11
2019-05-11T18:05:42.741Z,85.49
2019-05-11T18:08:14.343Z,85.92
2019-05-11T18:10:47.952Z,85.81
2019-05-11T18:13:19.799Z,85.58
2019-05-11T18:15:51.337Z,85.01
2019-05-11T18:18:24.007Z,84.51
2019-05-11T18:20:54.467Z,84.65
2019-05-11T18:23:25.254Z,85.01
2019-05-11T18:25:56.277Z,85.06
2019-05-11T18:28:28.996Z,85.03
2019-05-11T18:30:59.823Z,84.77
2019-05-11T18:33:30.868Z,85.25
2019-05-11T18:36:01.905Z,85.52
2019-05-11T18:38:32.611Z,85.88
2019-05-11T18:41:03.494Z,85.46
2019-05-11T18:43:34.388Z,85.57
2019-05-11T18:46:08.341Z,85.28
2019-05-11T18:48:39.967Z,84.54
2019-05-11T18:51:10.648Z,83.38
2019-05-11T18:53:41.871Z,84.35
2019-05-11T18:56:13.169Z,84.48
2019-05-11T18:58:43.851Z,83.18
2019-05-11T19:01:14.843Z,83.54
2019-05-11T19:03:47.849Z,82.12
2019-05-11T19:06:19.064Z,83.22
2019-05-11T19:08:50.096Z,83.34
2019-05-11T19:11:21.603Z,83.34
2019-05-11T19:13:52.301Z,84.51
2019-05-11T19:16:23.330Z,84.54
2019-05-11T19:18:54.155Z,84.46
2019-05-11T19:21:24.908Z,84.15
2019-05-11T19:23:58.011Z,84.60
2019-05-11T19:26:28.602Z,84.86
2019-05-11T19:29:00.773Z,84.79
2019-05-11T19:31:32.701Z,84.57
2019-05-11T19:34:03.681Z,83.57
2019-05-11T19:36:34.721Z,82.96
2019-05-11T19:39:08.910Z,82.51
2019-05-11T19:41:40.812Z,83.59
2019-05-11T19:44:12.042Z,84.56
2019-05-11T19:46:42.724Z,84.81
2019-05-11T19:49:13.710Z,84.08
2019-05-11T19:51:48.525Z,84.96
2019-05-11T19:54:18.833Z,84.44
2019-05-11T19:56:52.295Z,84.24
2019-05-11T19:59:22.620Z,83.40
2019-05-11T20:01:53.709Z,83.31
2019-05-11T20:04:25.057Z,83.65
2019-05-11T20:06:58.100Z,82.70
2019-05-11T20:09:28.489Z,82.62
2019-05-11T20:11:59.196Z,83.03
2019-05-11T20:14:30.269Z,83.56
2019-05-11T20:17:01.319Z,83.69
2019-05-11T20:19:32.338Z,83.91
2019-05-11T20:22:03.801Z,84.27
2019-05-11T20:24:35.877Z,84.91
2019-05-11T20:27:08.027Z,85.01
2019-05-11T20:29:39.028Z,85.45
2019-05-11T20:32:09.756Z,85.64
2019-05-11T20:34:40.531Z,85.39
2019-05-11T20:37:11.543Z,85.47
2019-05-11T20:39:42.605Z,85.89
2019-05-11T20:42:13.658Z,86.12
2019-05-11T20:44:44.739Z,86.58
2019-05-11T20:47:17.411Z,86.32
2019-05-11T20:49:48.288Z,86.37
2019-05-11T20:52:20.368Z,86.85
2019-05-11T20:54:51.827Z,87.24
2019-05-11T20:57:24.210Z,87.39
2019-05-11T20:59:54.909Z,87.67
2019-05-11T21:02:28.813Z,88.06
2019-05-11T21:05:00.446Z,88.07
2019-05-11T21:07:31.171Z,88.53
2019-05-11T21:10:02.350Z,88.83
2019-05-11T21:12:33.407Z,89.07
2019-05-11T21:15:06.773Z,89.40
2019-05-11T21:17:38.446Z,89.61
2019-05-11T21:20:11.237Z,89.60
2019-05-11T21:22:43.286Z,89.46
2019-05-11T21:25:14.620Z,89.88
2019-05-11T21:27:45.283Z,90.06
2019-05-11T21:30:18.512Z,90.06
2019-05-11T21:32:49.414Z,90.20
2019-05-11T21:35:21.186Z,90.32
2019-05-11T21:37:51.869Z,90.30
2019-05-11T21:40:23.151Z,90.37
2019-05-11T21:42:55.079Z,90.15
2019-05-11T21:45:25.750Z,90.33
2019-05-11T21:47:57.973Z,90.92
2019-05-11T21:50:48.149Z,90.91
2019-05-11T21:53:19.256Z,91.45
2019-05-11T21:55:50.254Z,91.24
2019-05-11T21:58:20.962Z,91.38
2019-05-11T22:00:51.935Z,91.68
2019-05-11T22:03:24.263Z,91.30
2019-05-11T22:05:55.217Z,91.78
2019-05-11T22:08:28.217Z,91.55
2019-05-11T22:11:00.012Z,91.60
2019-05-11T22:13:31.221Z,91.80
2019-05-11T22:16:02.273Z,91.68
2019-05-11T22:18:32.956Z,91.83
2019-05-11T22:21:03.935Z,91.83
2019-05-11T22:23:35.223Z,91.66
2019-05-11T22:26:07.769Z,91.96
2019-05-11T22:28:39.312Z,92.18
2019-05-11T22:31:10.213Z,91.79
2019-05-11T22:33:40.918Z,92.01
2019-05-11T22:36:11.855Z,91.95
2019-05-11T22:38:42.595Z,91.30
2019-05-11T22:41:13.721Z,91.44
2019-05-11T22:43:44.432Z,91.39
2019-05-11T22:46:17.746Z,91.72
2019-05-11T22:48:49.107Z,92.05
2019-05-11T22:51:20.154Z,92.32
2019-05-11T22:53:50.869Z,92.45
2019-05-11T22:56:21.564Z,92.36
2019-05-11T22:58:52.246Z,91.93
2019-05-11T23:01:23.251Z,91.14
2019-05-11T23:03:55.316Z,90.49
2019-05-11T23:06:26.011Z,90.96
2019-05-11T23:08:58.705Z,90.38
2019-05-11T23:11:29.890Z,90.25
2019-05-11T23:14:00.891Z,89.86
2019-05-11T23:16:31.629Z,89.23
2019-05-11T23:19:02.690Z,89.40
2019-05-11T23:21:33.639Z,89.39
2019-05-11T23:24:07.682Z,88.76
2019-05-11T23:26:38.739Z,88.33
2019-05-11T23:29:09.549Z,88.52
2019-05-11T23:31:40.552Z,89.13
2019-05-11T23:34:11.502Z,89.43
2019-05-11T23:36:42.182Z,89.65
2019-05-11T23:39:12.846Z,90.07
2019-05-11T23:41:43.670Z,90.10
2019-05-11T23:44:14.644Z,90.39
2019-05-11T23:46:47.708Z,89.98
2019-05-11T23:49:18.093Z,90.01
2019-05-11T23:51:49.287Z,90.21
2019-05-11T23:54:19.954Z,90.42
2019-05-11T23:56:52.175Z,90.19
2019-05-11T23:59:22.836Z,90.53
